Time;durP1;ratioP1;P1;durP2;ratioP2;P2;SDS_P1;SDS_P2;PMS_P1;PMS_P2;Temp;Humidity;BMP_temperature;BMP_pressure;BME280_temperature;BME280_humidity;BME280_pressure;Samples;Min_cycle;Max_cycle;Signal;HPM_P1;HPM_P2
2022/01/30 00:02:05;;;;;;;4.28;1.40;;;19.70;46.70;;;;;;5065606;28;20107;-65
2022/01/30 00:04:31;;;;;;;3.40;1.60;;;19.70;46.70;;;;;;5072965;28;20522;-65
2022/01/30 00:06:56;;;;;;;6.15;1.52;;;19.60;46.70;;;;;;5072774;28;20107;-64
2022/01/30 00:09:23;;;;;;;3.72;1.35;;;19.60;46.70;;;;;;5071071;28;20119;-67
2022/01/30 00:11:54;;;;;;;4.15;1.50;;;19.60;46.70;;;;;;5072900;28;20093;-67
2022/01/30 00:14:22;;;;;;;5.90;1.50;;;19.60;46.60;;;;;;5072799;28;20144;-67
2022/01/30 00:16:56;;;;;;;7.25;1.92;;;19.60;46.70;;;;;;5072517;28;20305;-67
2022/01/30 00:19:33;;;;;;;4.72;1.60;;;19.50;46.70;;;;;;5069870;28;20033;-67
2022/01/30 00:22:14;;;;;;;6.35;1.45;;;19.50;46.80;;;;;;5069008;28;20036;-68
2022/01/30 00:27:53;;;;;;;4.63;1.27;;;19.50;46.80;;;;;;5020568;28;20532;-67
2022/01/30 00:30:19;;;;;;;4.90;1.55;;;19.50;46.80;;;;;;5061876;28;20047;-67
2022/01/30 00:32:45;;;;;;;5.70;1.67;;;19.50;46.80;;;;;;5072395;28;20020;-67
2022/01/30 00:35:11;;;;;;;5.70;1.70;;;19.50;46.80;;;;;;5072426;28;20032;-67
2022/01/30 00:37:40;;;;;;;4.43;1.50;;;19.50;46.90;;;;;;5072714;28;20078;-67
2022/01/30 00:40:07;;;;;;;4.85;1.33;;;19.40;46.70;;;;;;5072779;28;20025;-67
2022/01/30 00:42:33;;;;;;;3.67;1.48;;;19.40;46.80;;;;;;5072193;28;20063;-67
2022/01/30 00:44:59;;;;;;;5.30;1.60;;;19.40;47.70;;;;;;5052852;28;20029;-67
2022/01/30 00:47:25;;;;;;;4.13;1.40;;;19.40;46.90;;;;;;5054468;28;20047;-67
2022/01/30 00:49:50;;;;;;;4.95;1.67;;;19.50;46.90;;;;;;5063920;28;20494;-67
2022/01/30 00:52:17;;;;;;;3.97;1.25;;;19.40;46.80;;;;;;5071924;28;20028;-67
2022/01/30 00:54:46;;;;;;;4.85;1.60;;;19.40;46.80;;;;;;5040015;28;20039;-67
2022/01/30 00:57:11;;;;;;;4.78;1.40;;;19.40;47.80;;;;;;5066493;28;20029;-67
2022/01/30 00:59:37;;;;;;;4.78;1.40;;;19.40;46.90;;;;;;5067957;28;20449;-67
2022/01/30 01:02:04;;;;;;;5.78;1.70;;;19.40;46.80;;;;;;5072050;28;20025;-67
2022/01/30 01:04:30;;;;;;;3.88;1.38;;;19.40;46.80;;;;;;5072020;28;20024;-67
2022/01/30 01:06:55;;;;;;;5.47;1.60;;;19.40;46.90;;;;;;5072169;28;20078;-67
2022/01/30 01:09:26;;;;;;;4.53;1.45;;;19.30;46.90;;;;;;5070069;28;20029;-67
2022/01/30 01:25:13;;;;;;;6.90;1.40;;;19.30;47.00;;;;;;5072068;28;20048;-68
2022/01/30 01:27:39;;;;;;;7.28;1.67;;;19.30;46.90;;;;;;5072540;28;20036;-67
2022/01/30 01:30:05;;;;;;;6.50;1.42;;;19.30;47.10;;;;;;5069257;28;20052;-66
2022/01/30 01:32:31;;;;;;;7.65;1.60;;;19.20;46.90;;;;;;5069060;28;20025;-66
2022/01/30 01:34:56;;;;;;;10.18;1.77;;;19.20;46.90;;;;;;5069354;28;20365;-66
2022/01/30 01:37:22;;;;;;;5.60;1.40;;;19.20;46.90;;;;;;5069522;28;20032;-66
2022/01/30 01:39:48;;;;;;;5.80;1.55;;;19.20;46.90;;;;;;5070330;28;20037;-66
2022/01/30 01:42:15;;;;;;;5.97;1.65;;;19.20;46.80;;;;;;5071535;28;20024;-66
2022/01/30 01:44:46;;;;;;;5.18;1.30;;;19.20;46.80;;;;;;5057333;28;20056;-66
2022/01/30 01:47:12;;;;;;;4.63;1.58;;;19.20;46.80;;;;;;5054386;28;20029;-66
2022/01/30 01:49:39;;;;;;;5.05;1.70;;;19.20;46.70;;;;;;5072732;28;20397;-66
2022/01/30 01:52:18;;;;;;;4.13;1.60;;;19.20;46.70;;;;;;5072822;28;20078;-66
2022/01/30 01:54:50;;;;;;;5.68;1.77;;;19.10;46.70;;;;;;5065795;28;20119;-66
2022/01/30 01:57:16;;;;;;;7.45;1.70;;;19.20;46.70;;;;;;5062968;28;20016;-66
2022/01/30 01:59:42;;;;;;;2.63;1.20;;;19.10;46.60;;;;;;5067235;28;20045;-66
2022/01/30 02:02:08;;;;;;;4.38;1.48;;;19.10;46.60;;;;;;5064210;28;20039;-66
2022/01/30 02:04:33;;;;;;;5.10;1.65;;;19.10;46.60;;;;;;5068822;28;20094;-66
2022/01/30 02:09:46;;;;;;;5.30;1.60;;;19.10;46.50;;;;;;5025326;28;20049;-66
2022/01/30 02:12:18;;;;;;;5.88;1.58;;;19.00;46.40;;;;;;5061469;28;20032;-66
2022/01/30 02:14:55;;;;;;;;;;;19.00;46.40;;;;;;5064494;28;20032;-66
2022/01/30 02:28:07;;;;;;;3.42;1.40;;;18.90;46.40;;;;;;5060719;28;20032;-66
2022/01/30 02:30:35;;;;;;;5.72;1.50;;;18.90;46.50;;;;;;5071211;28;20480;-67
2022/01/30 02:33:01;;;;;;;4.80;1.52;;;18.90;46.40;;;;;;5070797;28;20464;-67
2022/01/30 02:35:27;;;;;;;5.35;1.88;;;18.90;46.30;;;;;;5068622;28;20052;-66
2022/01/30 02:37:54;;;;;;;4.93;1.38;;;18.80;46.30;;;;;;5060201;28;20029;-66
2022/01/30 02:40:20;;;;;;;6.05;1.80;;;18.90;46.30;;;;;;5074051;28;20031;-66
2022/01/30 02:42:50;;;;;;;4.55;1.33;;;18.80;46.20;;;;;;5061536;28;20112;-66
2022/01/30 02:45:17;;;;;;;4.28;1.27;;;18.90;46.20;;;;;;5068371;28;20115;-66
2022/01/30 02:50:37;;;;;;;4.30;1.45;;;18.80;46.10;;;;;;5065800;28;20112;-66
2022/01/30 02:53:07;;;;;;;5.20;1.60;;;18.80;46.10;;;;;;5057506;28;20025;-66
2022/01/30 02:55:33;;;;;;;5.53;1.55;;;18.80;46.10;;;;;;5070431;28;20107;-66
2022/01/30 02:57:59;;;;;;;7.47;1.60;;;18.80;46.10;;;;;;5074491;28;20105;-66
2022/01/30 03:00:24;;;;;;;4.15;1.50;;;18.80;46.10;;;;;;5070661;28;20028;-66
2022/01/30 03:02:50;;;;;;;5.07;1.48;;;18.80;46.10;;;;;;5061593;28;20037;-66
2022/01/30 03:05:16;;;;;;;6.65;1.48;;;18.70;46.00;;;;;;5069009;28;20058;-66
2022/01/30 03:07:41;;;;;;;5.10;1.42;;;18.70;46.10;;;;;;5074702;28;20391;-66
2022/01/30 03:10:07;;;;;;;6.72;1.40;;;18.70;46.00;;;;;;5069931;28;20115;-67
2022/01/30 03:12:33;;;;;;;4.32;1.40;;;18.70;46.90;;;;;;5051812;28;20064;-66
2022/01/30 03:14:59;;;;;;;6.75;1.67;;;18.70;46.00;;;;;;5068733;28;20066;-66
2022/01/30 03:17:24;;;;;;;4.38;1.23;;;18.70;46.00;;;;;;5061555;28;20049;-66
2022/01/30 03:19:50;;;;;;;6.72;1.35;;;18.60;46.00;;;;;;5064980;28;20036;-67
2022/01/30 03:22:16;;;;;;;4.90;1.63;;;18.70;45.90;;;;;;5066265;28;20116;-67
2022/01/30 03:24:42;;;;;;;4.82;1.40;;;18.60;45.90;;;;;;5056827;28;20464;-67
2022/01/30 03:27:10;;;;;;;4.22;1.35;;;18.60;45.80;;;;;;5054939;28;20044;-67
2022/01/30 03:29:38;;;;;;;6.28;1.40;;;18.60;45.90;;;;;;5062231;28;20033;-67
2022/01/30 03:32:04;;;;;;;6.38;1.30;;;18.60;45.90;;;;;;5063177;28;20472;-67
2022/01/30 03:34:30;;;;;;;4.88;1.20;;;18.60;45.90;;;;;;5074073;28;20517;-67
2022/01/30 03:36:55;;;;;;;5.90;1.23;;;18.60;45.90;;;;;;5066842;28;20037;-67
2022/01/30 03:39:22;;;;;;;4.82;1.23;;;18.60;45.80;;;;;;5071681;28;20086;-66
2022/01/30 03:41:47;;;;;;;3.03;1.02;;;18.60;45.80;;;;;;5067603;28;20430;-66
2022/01/30 03:44:13;;;;;;;6.20;1.55;;;18.60;45.90;;;;;;5055265;28;20508;-66
2022/01/30 03:46:39;;;;;;;4.82;1.35;;;18.50;45.80;;;;;;5058953;28;20032;-66
2022/01/30 03:49:05;;;;;;;5.22;1.52;;;18.60;45.80;;;;;;5071403;28;20103;-66
2022/01/30 03:51:30;;;;;;;4.25;1.33;;;18.50;45.80;;;;;;5074598;28;20115;-67
2022/01/30 03:53:56;;;;;;;5.22;1.58;;;18.50;45.80;;;;;;5061291;28;20444;-67
2022/01/30 03:56:22;;;;;;;4.75;1.38;;;18.50;45.80;;;;;;5066012;28;20049;-67
2022/01/30 03:58:47;;;;;;;5.20;1.45;;;18.50;45.70;;;;;;5070083;28;20036;-67
2022/01/30 04:01:13;;;;;;;4.40;1.13;;;18.50;45.80;;;;;;5057525;28;20115;-67
2022/01/30 04:03:39;;;;;;;5.45;1.50;;;18.50;45.70;;;;;;5063797;28;20540;-66
2022/01/30 04:06:05;;;;;;;5.47;1.60;;;18.50;45.80;;;;;;5069721;28;20402;-67
2022/01/30 04:08:32;;;;;;;4.97;1.30;;;18.50;45.70;;;;;;5073326;28;20029;-66
2022/01/30 04:10:58;;;;;;;6.05;1.73;;;18.50;45.70;;;;;;5064366;28;20036;-67
2022/01/30 04:13:23;;;;;;;4.93;1.40;;;18.40;45.70;;;;;;5059686;28;20361;-66
2022/01/30 04:15:49;;;;;;;6.07;1.63;;;18.40;45.70;;;;;;5038158;28;20053;-66
2022/01/30 04:18:15;;;;;;;4.38;1.23;;;18.40;45.70;;;;;;5063860;28;20147;-67
2022/01/30 04:20:41;;;;;;;5.55;1.33;;;18.40;45.70;;;;;;5068632;28;20032;-67
2022/01/30 04:23:07;;;;;;;4.38;1.30;;;18.40;45.60;;;;;;5069538;28;20036;-66
2022/01/30 04:25:32;;;;;;;4.18;1.33;;;18.40;46.60;;;;;;5054653;28;20029;-66
2022/01/30 04:27:58;;;;;;;4.00;1.60;;;18.40;45.60;;;;;;5060456;28;20033;-66
2022/01/30 04:30:24;;;;;;;4.85;1.05;;;18.40;45.60;;;;;;5061552;28;20057;-66
2022/01/30 04:32:50;;;;;;;5.30;1.67;;;18.40;45.60;;;;;;5066607;28;20376;-66
2022/01/30 04:35:23;;;;;;;5.63;1.63;;;18.40;46.50;;;;;;5056195;28;20029;-66
2022/01/30 04:38:40;;;;;;;5.00;1.60;;;18.30;45.50;;;;;;5059071;28;20099;-67
2022/01/30 05:09:20;;;;;;;5.68;1.15;;;18.20;45.70;;;;;;5065113;28;20041;-66
2022/01/30 05:11:45;;;;;;;3.83;1.15;;;18.20;45.60;;;;;;5063923;28;20046;-66
2022/01/30 05:14:13;;;;;;;6.32;1.33;;;18.20;46.60;;;;;;5069884;28;20050;-66
2022/01/30 05:16:39;;;;;;;4.57;1.20;;;18.20;45.50;;;;;;5073552;28;20116;-67
2022/01/30 05:19:05;;;;;;;4.22;1.20;;;18.20;45.60;;;;;;5038028;28;20107;-66
2022/01/30 05:21:31;;;;;;;5.35;1.25;;;18.20;45.50;;;;;;5053741;28;20032;-66
2022/01/30 05:23:57;;;;;;;4.18;0.98;;;18.10;45.50;;;;;;5061587;28;20090;-66
2022/01/30 05:26:25;;;;;;;6.70;1.40;;;18.10;45.60;;;;;;5064453;28;20033;-66
2022/01/30 05:28:52;;;;;;;2.28;0.77;;;18.10;45.60;;;;;;5066960;28;20111;-66
2022/01/30 05:31:17;;;;;;;5.05;1.30;;;18.10;45.50;;;;;;5059675;28;20116;-66
2022/01/30 05:33:43;;;;;;;2.92;1.00;;;18.10;45.60;;;;;;5066165;28;20112;-66
2022/01/30 05:36:09;;;;;;;4.88;1.25;;;18.10;45.50;;;;;;5072384;28;20025;-66
2022/01/30 05:38:35;;;;;;;5.53;1.70;;;18.10;45.50;;;;;;5065394;28;20552;-66
2022/01/30 05:41:02;;;;;;;8.85;1.50;;;18.10;45.50;;;;;;5069045;28;20379;-66
2022/01/30 05:43:30;;;;;;;3.78;0.90;;;18.10;45.50;;;;;;5069809;28;20500;-66
2022/01/30 05:46:07;;;;;;;2.75;0.90;;;18.10;45.50;;;;;;5057249;28;20056;-66
2022/01/30 05:48:33;;;;;;;3.67;1.15;;;18.00;45.40;;;;;;5060971;28;20392;-66
2022/01/30 05:50:59;;;;;;;2.13;0.68;;;18.00;45.50;;;;;;5063206;28;20036;-66
2022/01/30 05:53:25;;;;;;;3.55;0.98;;;18.00;45.50;;;;;;5062175;28;20032;-66
2022/01/30 05:55:51;;;;;;;2.85;0.93;;;18.00;45.50;;;;;;5075090;28;20044;-66
2022/01/30 05:58:16;;;;;;;4.00;1.10;;;18.00;45.50;;;;;;5067441;28;20024;-66
2022/01/30 06:00:42;;;;;;;4.68;1.15;;;18.00;45.50;;;;;;5074622;28;20056;-66
2022/01/30 06:03:08;;;;;;;3.83;0.82;;;18.00;45.50;;;;;;5063297;28;20062;-66
2022/01/30 06:05:33;;;;;;;3.65;0.88;;;18.00;45.50;;;;;;5062106;28;20028;-66
2022/01/30 06:08:09;;;;;;;2.10;0.90;;;18.00;45.40;;;;;;5056792;28;20471;-66
2022/01/30 06:10:35;;;;;;;3.80;1.10;;;18.00;45.40;;;;;;5059914;28;20033;-66
2022/01/30 06:13:00;;;;;;;3.22;0.95;;;17.90;45.40;;;;;;5065852;28;20029;-66
2022/01/30 06:15:26;;;;;;;2.90;0.80;;;17.90;45.40;;;;;;5075520;28;20103;-66
2022/01/30 06:17:52;;;;;;;2.63;0.90;;;17.90;45.40;;;;;;5075325;28;20032;-66
2022/01/30 06:20:17;;;;;;;4.18;1.00;;;17.90;45.40;;;;;;5061442;28;20040;-67
2022/01/30 06:22:43;;;;;;;5.00;1.25;;;17.90;45.40;;;;;;5066814;28;20021;-66
2022/01/30 06:25:09;;;;;;;2.55;1.02;;;17.90;45.50;;;;;;5069587;28;20116;-66
2022/01/30 06:27:35;;;;;;;4.22;0.90;;;17.90;45.50;;;;;;5068759;28;20078;-66
2022/01/30 06:30:02;;;;;;;4.50;1.40;;;17.90;45.40;;;;;;5075551;28;20036;-66
2022/01/30 06:32:28;;;;;;;2.25;0.93;;;17.80;45.40;;;;;;5074173;28;20020;-66
2022/01/30 06:34:54;;;;;;;2.25;0.77;;;17.80;45.30;;;;;;5073264;28;20476;-66
2022/01/30 06:37:20;;;;;;;3.58;0.88;;;17.80;45.30;;;;;;5069582;28;20104;-66
2022/01/30 06:39:46;;;;;;;3.63;0.73;;;17.80;45.40;;;;;;5063951;28;20086;-66
2022/01/30 06:42:11;;;;;;;3.80;0.70;;;17.80;45.40;;;;;;5063905;28;20032;-66
2022/01/30 06:44:38;;;;;;;2.45;0.95;;;17.80;45.40;;;;;;5071956;28;20060;-66
2022/01/30 06:47:04;;;;;;;1.70;0.90;;;17.80;45.40;;;;;;5037818;28;20025;-66
2022/01/30 06:49:30;;;;;;;2.38;0.85;;;17.80;45.40;;;;;;5065139;28;20086;-66
2022/01/30 06:51:56;;;;;;;2.78;0.70;;;17.80;45.40;;;;;;5070318;28;20024;-66
2022/01/30 06:54:21;;;;;;;3.58;1.02;;;17.80;45.30;;;;;;5067017;28;20024;-66
2022/01/30 06:56:47;;;;;;;3.50;0.80;;;17.70;45.30;;;;;;5065369;28;20885;-66
2022/01/30 06:59:12;;;;;;;2.92;0.90;;;17.80;45.40;;;;;;5073936;28;20512;-66
2022/01/30 07:01:38;;;;;;;5.07;1.00;;;17.70;45.40;;;;;;5050723;28;20044;-66
2022/01/30 07:04:04;;;;;;;4.03;1.13;;;17.70;45.40;;;;;;5065080;28;20027;-66
2022/01/30 07:06:30;;;;;;;3.25;0.85;;;17.70;45.40;;;;;;5055574;28;20033;-66
2022/01/30 07:08:55;;;;;;;2.85;0.80;;;17.70;45.40;;;;;;5056071;28;20039;-66
2022/01/30 07:11:21;;;;;;;2.53;0.80;;;17.70;45.40;;;;;;5062313;28;20375;-66
2022/01/30 07:13:47;;;;;;;3.33;0.80;;;17.70;45.40;;;;;;5068682;28;20040;-66
2022/01/30 07:16:13;;;;;;;3.22;0.73;;;17.70;45.40;;;;;;5040755;28;20029;-66
2022/01/30 07:18:38;;;;;;;5.78;1.13;;;17.70;45.40;;;;;;5073091;28;20085;-66
2022/01/30 07:21:07;;;;;;;3.08;0.68;;;17.70;45.40;;;;;;5061497;28;20030;-66
2022/01/30 07:23:33;;;;;;;4.22;0.88;;;17.70;45.40;;;;;;5060622;28;20041;-66
2022/01/30 07:25:58;;;;;;;3.40;1.13;;;17.60;45.30;;;;;;5066663;28;20013;-66
2022/01/30 07:28:24;;;;;;;2.40;0.70;;;17.60;45.30;;;;;;5066234;28;20029;-66
2022/01/30 07:30:49;;;;;;;2.42;0.70;;;17.60;45.30;;;;;;5053990;28;20032;-66
2022/01/30 07:33:15;;;;;;;3.00;0.82;;;17.60;45.40;;;;;;5059656;28;20108;-66
2022/01/30 07:35:42;;;;;;;3.63;1.08;;;17.60;45.30;;;;;;5055359;28;20021;-66
2022/01/30 07:38:08;;;;;;;4.25;1.00;;;17.60;45.30;;;;;;5055130;28;20021;-67
2022/01/30 07:40:34;;;;;;;3.30;1.25;;;17.60;45.30;;;;;;5054912;28;20583;-66
2022/01/30 07:42:59;;;;;;;3.20;1.00;;;17.60;45.30;;;;;;5054526;28;20120;-66
2022/01/30 07:45:26;;;;;;;2.97;1.00;;;17.60;45.30;;;;;;5043306;28;20029;-66
2022/01/30 07:47:51;;;;;;;4.80;1.13;;;17.60;45.30;;;;;;5071581;28;20032;-66
2022/01/30 07:50:17;;;;;;;4.10;0.90;;;17.60;45.30;;;;;;5056413;28;20051;-66
2022/01/30 07:52:43;;;;;;;4.97;1.00;;;17.60;45.30;;;;;;5071908;28;20032;-66
2022/01/30 07:55:09;;;;;;;4.10;1.17;;;17.50;45.20;;;;;;5074400;28;20044;-66
2022/01/30 07:57:35;;;;;;;2.63;0.70;;;17.50;45.30;;;;;;5064626;28;20115;-66
2022/01/30 08:00:00;;;;;;;3.55;1.00;;;17.50;45.20;;;;;;5073044;28;20182;-66
2022/01/30 08:02:26;;;;;;;1.48;0.52;;;17.60;45.30;;;;;;5049648;28;20052;-66
2022/01/30 08:04:53;;;;;;;3.60;0.95;;;17.50;45.20;;;;;;5055902;28;20032;-66
2022/01/30 08:07:19;;;;;;;2.40;0.77;;;17.50;45.20;;;;;;5063535;28;20064;-66
2022/01/30 08:09:44;;;;;;;3.70;0.95;;;17.50;45.70;;;;;;5073286;28;20028;-66
2022/01/30 08:12:10;;;;;;;4.18;1.13;;;17.50;45.30;;;;;;5071392;28;20399;-66
2022/01/30 08:14:36;;;;;;;7.22;1.50;;;17.50;45.20;;;;;;5058149;28;20397;-68
2022/01/30 08:17:02;;;;;;;7.03;1.70;;;17.20;41.80;;;;;;5068176;28;20048;-68
2022/01/30 08:19:27;;;;;;;7.28;1.58;;;16.60;42.70;;;;;;5068195;28;20051;-64
2022/01/30 08:21:56;;;;;;;8.85;1.98;;;16.10;43.00;;;;;;5068761;28;20021;-68
2022/01/30 08:24:23;;;;;;;5.65;1.10;;;15.80;43.70;;;;;;5069217;28;20418;-65
2022/01/30 08:26:49;;;;;;;6.85;1.77;;;15.40;43.90;;;;;;5060924;28;20101;-68
2022/01/30 08:29:15;;;;;;;7.35;1.83;;;15.10;44.00;;;;;;5053824;28;20104;-66
2022/01/30 08:31:40;;;;;;;10.68;2.03;;;14.80;44.80;;;;;;5054445;28;20116;-67
2022/01/30 08:34:06;;;;;;;6.40;1.50;;;14.70;46.20;;;;;;5044279;28;20021;-67
2022/01/30 08:36:32;;;;;;;5.65;1.27;;;14.90;47.30;;;;;;5070237;28;20048;-67
2022/01/30 08:38:57;;;;;;;6.13;1.15;;;15.20;47.20;;;;;;5073780;28;20484;-67
2022/01/30 08:41:23;;;;;;;5.95;1.40;;;15.50;46.70;;;;;;5058768;28;20044;-68
2022/01/30 08:43:49;;;;;;;6.93;1.13;;;15.80;46.30;;;;;;5053813;28;20365;-68
2022/01/30 08:46:15;;;;;;;3.85;1.10;;;16.10;45.80;;;;;;5042205;28;20514;-67
2022/01/30 08:48:40;;;;;;;5.97;1.23;;;16.40;45.30;;;;;;5064845;28;20029;-68
2022/01/30 08:51:06;;;;;;;4.85;1.52;;;16.60;44.80;;;;;;5068584;28;20040;-67
2022/01/30 08:53:32;;;;;;;6.05;1.10;;;16.80;44.50;;;;;;5070100;28;20032;-68
2022/01/30 08:55:57;;;;;;;4.70;1.58;;;17.00;44.30;;;;;;5059429;28;20045;-66
2022/01/30 08:58:23;;;;;;;4.30;0.93;;;17.20;44.10;;;;;;5068805;28;20111;-68
2022/01/30 09:00:49;;;;;;;4.13;1.15;;;17.30;43.80;;;;;;5073766;28;20086;-68
2022/01/30 09:03:15;;;;;;;6.85;1.20;;;17.50;43.60;;;;;;5073510;28;20032;-68
2022/01/30 09:05:40;;;;;;;6.85;1.38;;;17.60;43.00;;;;;;5073500;28;20036;-68
2022/01/30 09:08:07;;;;;;;5.65;1.20;;;17.80;42.60;;;;;;5073597;28;20031;-68
2022/01/30 09:10:38;;;;;;;6.05;1.45;;;17.90;42.10;;;;;;5071303;28;20083;-67
2022/01/30 09:13:05;;;;;;;4.38;1.50;;;18.00;41.90;;;;;;5053400;28;20052;-67
2022/01/30 09:15:37;;;;;;;4.70;1.27;;;18.10;41.90;;;;;;5069148;28;20024;-68
2022/01/30 09:18:08;;;;;;;7.30;1.67;;;18.30;41.90;;;;;;5072954;28;20027;-67
2022/01/30 09:20:34;;;;;;;5.82;1.45;;;18.30;41.60;;;;;;5054719;28;20056;-68
2022/01/30 09:23:00;;;;;;;2.92;1.05;;;18.50;41.50;;;;;;5072594;28;20060;-67
2022/01/30 09:25:27;;;;;;;3.70;0.95;;;18.60;41.30;;;;;;5056511;28;20064;-67
2022/01/30 09:27:52;;;;;;;4.35;1.50;;;18.70;41.20;;;;;;5067320;28;20036;-67
2022/01/30 09:30:18;;;;;;;6.45;1.42;;;18.80;41.20;;;;;;5073348;28;20036;-68
2022/01/30 09:32:44;;;;;;;7.78;1.20;;;18.90;41.20;;;;;;5055430;28;20025;-68
2022/01/30 09:35:10;;;;;;;4.20;1.55;;;18.90;41.20;;;;;;5073134;28;20107;-68
2022/01/30 09:37:35;;;;;;;4.68;1.20;;;18.90;41.10;;;;;;5073203;28;20025;-68
2022/01/30 09:40:01;;;;;;;6.13;1.45;;;18.90;41.20;;;;;;5073337;28;20048;-68
2022/01/30 09:42:27;;;;;;;5.30;1.65;;;18.90;41.30;;;;;;5072533;28;20041;-67
2022/01/30 09:44:53;;;;;;;3.75;1.10;;;19.00;41.60;;;;;;5033107;28;20053;-67
2022/01/30 09:47:18;;;;;;;6.50;1.27;;;19.00;41.60;;;;;;5061547;28;20033;-67
2022/01/30 09:49:48;;;;;;;5.13;1.60;;;19.10;41.80;;;;;;5060041;28;20024;-68
2022/01/30 09:52:14;;;;;;;5.80;1.17;;;19.10;41.80;;;;;;5066528;28;20013;-68
2022/01/30 09:54:40;;;;;;;4.03;1.20;;;19.10;41.80;;;;;;5073081;28;20070;-68
2022/01/30 09:57:06;;;;;;;3.22;1.17;;;19.20;42.00;;;;;;5072855;28;20071;-67
2022/01/30 09:59:31;;;;;;;3.78;1.23;;;19.20;43.00;;;;;;5072607;28;20415;-67
2022/01/30 10:01:57;;;;;;;5.65;1.50;;;19.30;42.10;;;;;;5072635;28;20028;-67
2022/01/30 10:04:23;;;;;;;4.65;1.13;;;19.30;42.10;;;;;;5072829;28;20509;-67
2022/01/30 10:06:59;;;;;;;5.18;1.25;;;19.40;42.20;;;;;;5073043;28;20092;-68
2022/01/30 10:09:31;;;;;;;4.28;1.27;;;19.40;42.20;;;;;;5067623;28;20477;-66
2022/01/30 10:12:16;;;;;;;4.22;1.25;;;19.40;42.20;;;;;;5066210;28;20464;-67
2022/01/30 10:14:53;;;;;;;4.03;1.20;;;19.50;42.20;;;;;;5072713;28;20036;-66
2022/01/30 10:17:38;;;;;;;5.75;1.15;;;19.50;42.30;;;;;;5072472;28;20106;-67
2022/01/30 10:20:10;;;;;;;6.88;1.40;;;19.50;42.20;;;;;;5054615;28;20364;-67
2022/01/30 10:22:51;;;;;;;5.20;1.27;;;19.50;42.90;;;;;;5074187;28;20045;-67
2022/01/30 10:25:23;;;;;;;4.60;1.23;;;19.60;42.80;;;;;;5076522;28;20048;-66
2022/01/30 10:27:56;;;;;;;4.73;1.50;;;19.70;42.60;;;;;;5058274;28;20051;-68
2022/01/30 10:30:22;;;;;;;5.97;1.48;;;19.80;42.30;;;;;;5075902;28;20282;-68
2022/01/30 10:32:56;;;;;;;5.28;1.60;;;19.90;41.70;;;;;;5076455;28;20567;-68
2022/01/30 10:35:22;;;;;;;4.43;1.08;;;20.00;41.70;;;;;;5077349;28;20050;-67
2022/01/30 10:37:48;;;;;;;5.15;1.45;;;20.10;41.80;;;;;;5076189;28;20091;-68
2022/01/30 10:40:20;;;;;;;4.68;1.42;;;20.10;41.70;;;;;;5074432;28;20109;-67
2022/01/30 10:42:48;;;;;;;3.45;1.00;;;20.20;41.70;;;;;;5057997;28;20062;-67
2022/01/30 10:45:32;;;;;;;5.85;1.65;;;20.30;41.60;;;;;;5056009;28;20036;-67
2022/01/30 10:48:11;;;;;;;3.53;1.02;;;20.40;41.30;;;;;;5068524;28;20028;-67
2022/01/30 10:50:40;;;;;;;3.85;1.17;;;20.50;41.20;;;;;;5055646;28;20021;-67
2022/01/30 10:53:06;;;;;;;5.45;1.58;;;20.60;41.30;;;;;;5053843;28;20499;-67
2022/01/30 10:55:41;;;;;;;5.30;1.48;;;20.60;40.90;;;;;;5075598;28;20132;-67
2022/01/30 10:58:09;;;;;;;4.82;1.30;;;20.70;40.60;;;;;;5042100;28;20048;-67
2022/01/30 11:00:52;;;;;;;5.35;1.30;;;20.80;40.50;;;;;;5073690;28;20075;-67
2022/01/30 11:03:40;;;;;;;4.05;1.40;;;20.90;40.30;;;;;;5064992;28;20381;-67
2022/01/30 11:06:10;;;;;;;4.95;1.25;;;21.00;39.80;;;;;;5054344;28;20043;-66
2022/01/30 11:08:39;;;;;;;3.88;1.08;;;21.00;40.00;;;;;;5057920;28;20024;-67
2022/01/30 11:11:15;;;;;;;5.05;1.20;;;21.00;39.70;;;;;;5073970;28;20025;-67
2022/01/30 11:14:20;;;;;;;4.10;1.00;;;21.10;39.50;;;;;;5055137;28;20108;-67
2022/01/30 11:19:21;;;;;;;4.55;1.23;;;21.30;39.30;;;;;;5062434;28;20071;-67
2022/01/30 11:21:52;;;;;;;4.43;1.27;;;21.30;39.10;;;;;;5074658;28;20025;-67
2022/01/30 11:24:23;;;;;;;4.47;1.10;;;21.40;39.80;;;;;;5073835;28;20520;-67
2022/01/30 11:26:48;;;;;;;3.40;1.00;;;21.50;38.70;;;;;;5070678;28;20116;-67
2022/01/30 11:29:16;;;;;;;3.90;1.40;;;21.50;38.60;;;;;;5058363;28;20511;-68
2022/01/30 11:31:43;;;;;;;3.78;1.35;;;21.60;38.40;;;;;;5052171;28;20111;-67
2022/01/30 11:34:09;;;;;;;3.83;1.27;;;21.60;38.50;;;;;;5064271;28;20171;-67
2022/01/30 11:36:40;;;;;;;3.72;1.23;;;21.60;38.50;;;;;;5066837;28;20032;-66
2022/01/30 11:39:07;;;;;;;3.30;1.20;;;21.60;38.40;;;;;;5070727;28;20016;-67
2022/01/30 11:41:34;;;;;;;3.15;1.08;;;21.70;38.40;;;;;;5070203;28;20502;-67
2022/01/30 11:44:18;;;;;;;4.85;1.23;;;21.70;38.50;;;;;;5073163;28;20468;-66
2022/01/30 11:46:53;;;;;;;3.38;1.20;;;21.70;38.30;;;;;;5069985;28;20596;-67
2022/01/30 11:49:18;;;;;;;4.65;1.42;;;21.70;38.60;;;;;;5073744;28;20028;-67
2022/01/30 11:51:48;;;;;;;6.13;1.33;;;21.70;39.00;;;;;;5063934;28;20089;-67
2022/01/30 11:54:35;;;;;;;5.13;1.30;;;21.70;39.20;;;;;;5058264;28;20029;-67
2022/01/30 11:57:02;;;;;;;8.05;1.50;;;21.70;39.30;;;;;;5051823;28;20407;-66
2022/01/30 11:59:37;;;;;;;4.28;1.23;;;21.60;39.40;;;;;;5066992;28;20056;-67
2022/01/30 12:02:38;;;;;;;4.78;1.40;;;21.60;39.40;;;;;;5063655;28;20483;-67
2022/01/30 12:05:07;;;;;;;5.97;1.65;;;21.60;39.40;;;;;;4948871;28;20027;-67
2022/01/30 12:07:36;;;;;;;5.28;1.42;;;21.60;39.70;;;;;;5050899;28;20049;-67
2022/01/30 12:10:19;;;;;;;3.65;1.20;;;21.50;39.80;;;;;;5057833;28;20036;-66
2022/01/30 12:13:06;;;;;;;5.05;1.60;;;21.50;39.70;;;;;;5063275;28;20535;-66
2022/01/30 12:15:47;;;;;;;3.83;1.35;;;21.50;39.80;;;;;;5065506;28;20554;-67
2022/01/30 12:18:14;;;;;;;6.25;1.70;;;21.50;40.10;;;;;;5063506;28;20115;-67
2022/01/30 12:21:08;;;;;;;4.13;1.20;;;21.50;40.20;;;;;;5054973;28;20044;-67
2022/01/30 12:23:39;;;;;;;4.10;1.30;;;21.40;40.20;;;;;;5064891;28;20116;-67
2022/01/30 12:26:08;;;;;;;7.03;1.45;;;21.40;40.40;;;;;;5060846;28;20037;-67
2022/01/30 12:28:43;;;;;;;5.15;1.50;;;21.40;40.50;;;;;;5055429;28;20427;-70
2022/01/30 12:31:36;;;;;;;7.72;1.70;;;21.40;40.20;;;;;;5054135;28;20032;-68
2022/01/30 12:34:06;;;;;;;3.45;1.40;;;21.40;40.20;;;;;;5052721;28;20377;-68
2022/01/30 12:36:38;;;;;;;4.32;1.80;;;21.40;40.60;;;;;;5057463;28;20426;-67
2022/01/30 12:39:16;;;;;;;4.43;1.42;;;21.40;40.80;;;;;;5065943;28;20028;-67
2022/01/30 12:41:42;;;;;;;4.63;1.45;;;21.40;41.00;;;;;;5056018;28;20395;-68
2022/01/30 12:44:13;;;;;;;5.75;1.50;;;21.40;41.20;;;;;;5069203;28;20105;-68
2022/01/30 12:46:45;;;;;;;7.80;1.70;;;21.40;41.30;;;;;;5071227;28;20905;-68
2022/01/30 12:49:22;;;;;;;6.18;1.38;;;21.40;41.30;;;;;;5067688;28;20025;-67
2022/01/30 12:51:59;;;;;;;6.28;1.85;;;21.40;41.50;;;;;;5059663;28;20054;-68
2022/01/30 12:54:40;;;;;;;5.50;1.30;;;21.40;41.60;;;;;;5066970;28;20492;-67
2022/01/30 12:57:09;;;;;;;8.00;2.03;;;21.40;41.80;;;;;;5049354;28;20055;-66
2022/01/30 12:59:35;;;;;;;4.28;1.30;;;21.30;41.70;;;;;;5071469;28;20112;-69
2022/01/30 13:02:09;;;;;;;5.85;1.30;;;21.40;41.80;;;;;;5050337;28;20731;-69
2022/01/30 13:04:36;;;;;;;6.05;1.60;;;21.40;42.00;;;;;;5065159;28;20033;-70
2022/01/30 13:07:03;;;;;;;7.50;1.77;;;21.40;41.70;;;;;;5059715;28;20051;-68
2022/01/30 13:09:33;;;;;;;9.73;1.80;;;21.50;41.90;;;;;;5066663;28;20040;-68
2022/01/30 13:12:10;;;;;;;7.22;1.65;;;21.50;42.00;;;;;;5068449;28;20033;-68
2022/01/30 13:14:38;;;;;;;5.63;1.58;;;21.60;41.80;;;;;;5057862;28;20025;-66
2022/01/30 13:17:05;;;;;;;6.75;1.63;;;21.60;41.90;;;;;;5056606;28;20650;-68
2022/01/30 13:19:42;;;;;;;4.82;1.90;;;21.60;41.90;;;;;;5071757;28;20029;-68
2022/01/30 13:22:29;;;;;;;6.55;1.88;;;21.70;41.80;;;;;;5068566;28;20151;-68
2022/01/30 13:24:56;;;;;;;8.50;1.98;;;21.70;41.90;;;;;;5062695;28;20044;-67
2022/01/30 13:27:21;;;;;;;6.30;1.58;;;21.60;42.10;;;;;;5063953;28;20684;-69
2022/01/30 13:29:47;;;;;;;4.38;1.40;;;21.70;42.20;;;;;;5058121;28;20032;-68
2022/01/30 13:32:13;;;;;;;6.85;1.70;;;21.70;42.70;;;;;;5063397;28;20029;-68
2022/01/30 13:34:41;;;;;;;9.52;1.80;;;21.80;41.50;;;;;;5070017;28;20031;-68
2022/01/30 13:37:14;;;;;;;7.15;1.85;;;21.80;41.70;;;;;;5066872;28;20040;-67
2022/01/30 13:47:41;;;;;;;9.52;2.70;;;21.90;40.40;;;;;;5037541;28;20032;-68
2022/01/30 13:50:17;;;;;;;8.15;1.85;;;21.90;40.20;;;;;;5072502;28;20032;-68
2022/01/30 13:52:43;;;;;;;9.23;1.80;;;22.00;39.90;;;;;;5067806;28;20032;-66
2022/01/30 13:55:09;;;;;;;8.50;1.92;;;22.00;40.00;;;;;;5071284;28;20025;-66
2022/01/30 13:57:37;;;;;;;5.95;1.77;;;22.00;40.00;;;;;;5072828;28;20094;-67
2022/01/30 14:00:17;;;;;;;7.25;1.90;;;22.00;39.90;;;;;;5074952;28;20028;-66
2022/01/30 14:02:56;;;;;;;7.40;1.95;;;22.00;39.80;;;;;;5068374;28;20028;-66
2022/01/30 14:05:23;;;;;;;5.88;2.00;;;21.90;39.70;;;;;;5063003;28;20057;-67
2022/01/30 14:07:50;;;;;;;8.15;2.17;;;21.90;39.90;;;;;;5065102;28;20029;-67